Time;durP1;ratioP1;P1;durP2;ratioP2;P2;SDS_P1;SDS_P2;PMS_P1;PMS_P2;Temp;Humidity;BMP_temperature;BMP_pressure;BME280_temperature;BME280_humidity;BME280_pressure;Samples;Min_cycle;Max_cycle;Signal;HPM_P1;HPM_P2
2022/05/24 00:00:52;;;;;;;7.35;5.70;;;;;;;22.66;47.01;99814.91;5086302;28;20491;-76
2022/05/24 00:03:20;;;;;;;8.55;5.72;;;;;;;22.67;46.51;99813.84;5087104;28;20113;-76
2022/05/24 00:05:48;;;;;;;6.93;5.82;;;;;;;22.69;47.02;99808.97;5088001;28;20047;-77
2022/05/24 00:08:15;;;;;;;8.43;5.88;;;;;;;22.70;47.17;99807.06;5092009;28;20498;-76
2022/05/24 00:10:42;;;;;;;6.65;5.18;;;;;;;22.71;47.17;99806.00;5087603;28;20087;-77
2022/05/24 00:13:10;;;;;;;7.18;5.63;;;;;;;22.72;46.85;99813.25;5086549;28;20067;-76
2022/05/24 00:15:36;;;;;;;6.72;5.55;;;;;;;22.72;47.21;99810.47;5087582;28;20098;-76
2022/05/24 00:18:09;;;;;;;7.95;5.88;;;;;;;22.75;47.04;99810.06;5086776;28;20044;-76
2022/05/24 00:20:44;;;;;;;8.63;5.90;;;;;;;22.73;47.35;99801.94;5087597;28;20109;-76
2022/05/24 00:23:11;;;;;;;9.30;5.93;;;;;;;22.73;46.97;99801.13;5086078;28;20071;-76
2022/05/24 00:25:42;;;;;;;7.97;5.80;;;;;;;22.75;47.35;99805.38;5084709;28;20499;-76
2022/05/24 00:28:10;;;;;;;7.47;5.80;;;;;;;22.73;46.99;99806.66;5059949;28;20598;-76
2022/05/24 00:30:38;;;;;;;7.85;5.88;;;;;;;22.74;47.21;99805.59;5087892;28;20052;-76
2022/05/24 00:33:05;;;;;;;7.80;5.75;;;;;;;22.73;47.05;99795.56;5086646;28;20126;-76
2022/05/24 00:35:32;;;;;;;7.65;5.97;;;;;;;22.74;47.26;99797.28;5087774;28;20052;-77
2022/05/24 00:37:59;;;;;;;7.43;5.30;;;;;;;22.73;47.11;99793.63;5074027;28;20143;-76
2022/05/24 00:40:50;;;;;;;9.32;6.07;;;;;;;22.75;47.23;99788.78;5093490;28;20094;-76
2022/05/24 00:43:36;;;;;;;7.72;5.63;;;;;;;22.72;46.93;99786.41;5087942;28;20131;-76
2022/05/24 00:46:13;;;;;;;8.75;5.90;;;;;;;22.72;46.92;99789.19;5088268;28;20096;-76
2022/05/24 00:49:04;;;;;;;8.43;5.82;;;;;;;22.68;47.15;99793.41;5095064;28;20048;-76
2022/05/24 00:51:38;;;;;;;10.50;6.30;;;;;;;22.70;46.58;99796.84;5085326;28;20044;-76
2022/05/24 00:54:05;;;;;;;9.77;6.30;;;;;;;22.68;46.40;99798.09;5087592;28;20075;-76
2022/05/24 00:56:35;;;;;;;8.30;5.80;;;;;;;22.70;47.09;99788.53;5069873;28;20604;-76
2022/05/24 00:59:05;;;;;;;8.32;6.07;;;;;;;22.68;46.45;99787.88;5085648;28;20413;-76
2022/05/24 01:01:39;;;;;;;8.75;6.05;;;;;;;22.69;47.12;99784.06;5082890;28;20123;-76
2022/05/24 01:04:08;;;;;;;8.38;5.95;;;;;;;22.67;46.46;99791.69;5075184;28;20498;-76
2022/05/24 01:06:36;;;;;;;8.70;6.03;;;;;;;22.66;47.24;99778.06;5089761;28;20061;-76
2022/05/24 01:09:07;;;;;;;8.13;6.00;;;;;;;22.67;47.08;99780.63;5095257;28;20512;-76
2022/05/24 01:11:38;;;;;;;8.35;6.28;;;;;;;22.66;46.90;99778.94;5090232;28;20479;-76
2022/05/24 01:14:07;;;;;;;8.63;6.32;;;;;;;22.65;46.50;99779.13;5090670;28;20134;-76
2022/05/24 01:16:34;;;;;;;9.25;7.15;;;;;;;22.64;46.83;99775.53;5082736;28;20046;-76
2022/05/24 01:19:05;;;;;;;10.38;6.72;;;;;;;22.63;46.56;99779.34;5090612;28;20064;-76
2022/05/24 01:21:32;;;;;;;8.52;6.38;;;;;;;22.63;46.84;99784.03;5087824;28;20127;-76
2022/05/24 01:24:02;;;;;;;8.38;6.03;;;;;;;22.65;47.34;99784.66;5075299;28;20064;-76
2022/05/24 01:26:45;;;;;;;10.52;6.93;;;;;;;22.65;47.11;99792.97;5072372;28;20067;-76
2022/05/24 01:29:12;;;;;;;8.70;6.80;;;;;;;22.58;46.77;99795.69;5075198;28;20044;-76
2022/05/24 01:37:13;;;;;;;10.07;6.80;;;;;;;22.57;46.79;99798.66;5048770;28;20089;-76
2022/05/24 01:39:43;;;;;;;9.90;7.32;;;;;;;22.60;47.17;99778.91;5088167;28;20102;-76
2022/05/24 01:42:10;;;;;;;9.77;6.93;;;;;;;22.56;46.92;99780.38;5091005;28;20123;-76
2022/05/24 01:44:58;;;;;;;9.75;6.75;;;;;;;22.58;46.74;99784.63;5091749;28;20090;-76
2022/05/24 01:47:27;;;;;;;10.38;6.75;;;;;;;22.55;47.44;99789.75;5095997;28;20128;-76
2022/05/24 01:49:58;;;;;;;9.68;7.32;;;;;;;22.56;46.39;99786.78;5087163;28;20746;-76
2022/05/24 01:52:33;;;;;;;9.15;6.65;;;;;;;22.56;46.51;99786.78;5097666;28;20051;-76
2022/05/24 01:55:16;;;;;;;9.00;6.72;;;;;;;22.55;46.59;99787.84;5078239;28;20130;-76
2022/05/24 01:57:47;;;;;;;8.05;6.15;;;;;;;22.52;45.68;99779.09;5088809;28;20130;-76
2022/05/24 02:00:14;;;;;;;8.35;6.35;;;;;;;22.50;45.58;99779.28;5089960;28;20499;-76
2022/05/24 02:02:42;;;;;;;8.05;6.03;;;;;;;22.50;45.07;99786.72;5091480;28;20391;-76
2022/05/24 02:05:11;;;;;;;7.88;5.72;;;;;;;22.46;44.86;99799.28;5086577;28;20051;-76
2022/05/24 02:07:38;;;;;;;8.20;5.25;;;;;;;22.43;45.66;99794.13;5087428;28;20075;-76
2022/05/24 02:10:05;;;;;;;7.88;5.47;;;;;;;22.39;45.29;99791.81;5094229;28;20071;-76
2022/05/24 02:12:44;;;;;;;7.53;6.05;;;;;;;22.39;46.42;99796.47;5096877;28;20070;-76
2022/05/24 02:15:17;;;;;;;8.35;5.22;;;;;;;22.35;45.57;99803.47;5095528;28;20044;-76
2022/05/24 02:17:57;;;;;;;7.05;5.15;;;;;;;22.34;44.95;99810.03;5088020;28;20048;-76
2022/05/24 02:20:30;;;;;;;7.43;5.07;;;;;;;22.31;46.10;99816.00;5090086;28;20133;-76
2022/05/24 02:22:56;;;;;;;7.30;4.78;;;;;;;22.27;45.08;99810.00;5089493;28;20423;-76
2022/05/24 02:25:33;;;;;;;6.07;4.30;;;;;;;22.28;46.12;99806.19;5090933;28;20139;-76
2022/05/24 02:28:00;;;;;;;6.38;4.50;;;;;;;22.24;45.56;99804.03;5096246;28;20130;-76
2022/05/24 02:30:30;;;;;;;5.82;3.88;;;;;;;22.24;45.07;99806.78;5069966;28;20135;-76
2022/05/24 02:32:56;;;;;;;6.93;3.97;;;;;;;22.21;44.97;99804.44;5088470;28;20048;-76
2022/05/24 02:35:23;;;;;;;5.40;3.67;;;;;;;22.18;44.91;99810.38;5087580;28;20048;-76
2022/05/24 02:37:50;;;;;;;5.63;3.50;;;;;;;22.17;45.23;99803.97;5089923;28;20486;-76
2022/05/24 02:43:02;;;;;;;4.70;3.45;;;;;;;22.14;45.84;99809.09;5086513;28;20127;-76
2022/05/24 02:45:29;;;;;;;5.32;3.75;;;;;;;22.13;45.65;99807.38;5089594;28;20097;-76
2022/05/24 02:47:56;;;;;;;6.55;3.88;;;;;;;22.12;44.93;99801.00;5078685;28;20040;-76
2022/05/24 02:50:24;;;;;;;7.00;3.75;;;;;;;22.12;45.22;99801.00;5088624;28;20044;-76
2022/05/24 02:52:50;;;;;;;5.07;3.80;;;;;;;22.12;45.44;99794.59;5080800;28;20093;-76
2022/05/24 02:55:17;;;;;;;5.53;3.90;;;;;;;22.12;45.70;99795.47;5085310;28;20082;-76
2022/05/24 02:57:44;;;;;;;5.20;3.72;;;;;;;22.12;45.93;99797.38;5057172;28;20061;-76
2022/05/24 03:00:17;;;;;;;6.88;3.97;;;;;;;22.15;45.57;99808.03;5088921;28;20090;-76
2022/05/24 03:02:44;;;;;;;5.13;3.42;;;;;;;22.11;45.15;99809.47;5086605;28;20048;-76
2022/05/24 03:05:13;;;;;;;6.30;3.90;;;;;;;22.13;45.56;99805.47;5091903;28;20062;-76
2022/05/24 03:10:26;;;;;;;4.20;3.28;;;;;;;22.08;44.40;99799.66;5081774;28;20622;-76
2022/05/24 03:15:42;;;;;;;4.47;2.92;;;;;;;22.04;44.82;99803.91;5083186;28;20395;-76
2022/05/24 03:18:11;;;;;;;4.65;2.90;;;;;;;22.02;44.52;99797.72;5086501;28;20167;-76
2022/05/24 03:20:39;;;;;;;4.47;2.75;;;;;;;22.00;43.98;99794.28;5090384;28;20122;-76
2022/05/24 03:23:06;;;;;;;5.35;2.75;;;;;;;21.98;44.53;99789.00;5087461;28;20036;-76
2022/05/24 03:25:33;;;;;;;5.88;2.65;;;;;;;21.97;44.51;99786.44;5091815;28;20132;-76
2022/05/24 03:28:02;;;;;;;4.60;2.58;;;;;;;21.96;44.86;99793.84;5089008;28;20094;-76
2022/05/24 03:30:30;;;;;;;4.65;2.53;;;;;;;21.95;44.92;99802.31;5092830;28;20079;-76
2022/05/24 03:32:57;;;;;;;5.35;2.80;;;;;;;21.92;44.92;99805.47;5086748;28;20068;-76
2022/05/24 03:35:24;;;;;;;4.75;2.75;;;;;;;21.91;45.02;99801.84;5087543;28;20067;-76
2022/05/24 03:37:50;;;;;;;5.30;2.55;;;;;;;21.91;44.86;99804.63;5086710;28;20044;-76
2022/05/24 03:40:17;;;;;;;4.28;2.50;;;;;;;21.90;44.78;99794.66;5087402;28;20084;-76
2022/05/24 03:42:46;;;;;;;4.38;2.72;;;;;;;21.91;45.04;99801.84;5086096;28;20076;-76
2022/05/24 03:45:13;;;;;;;4.65;2.50;;;;;;;21.89;45.03;99800.38;5094448;28;20048;-76
2022/05/24 03:47:40;;;;;;;3.42;2.30;;;;;;;21.89;44.30;99806.75;5086340;28;20075;-76
2022/05/24 03:50:08;;;;;;;5.47;2.60;;;;;;;21.89;43.75;99811.44;5083041;28;20600;-76
2022/05/24 03:52:35;;;;;;;4.18;2.58;;;;;;;21.87;44.50;99810.75;5055495;28;20052;-76
2022/05/24 03:55:01;;;;;;;5.20;2.67;;;;;;;21.86;44.17;99811.81;5083951;28;20146;-76
2022/05/24 04:00:14;;;;;;;5.88;2.58;;;;;;;21.85;43.82;99807.34;5087667;28;20127;-76
2022/05/24 04:02:41;;;;;;;4.47;2.42;;;;;;;21.82;44.75;99819.66;5078881;28;20082;-76
2022/05/24 04:05:08;;;;;;;3.85;2.47;;;;;;;21.82;43.45;99821.56;5088271;28;20510;-76
2022/05/24 04:07:36;;;;;;;3.95;2.20;;;;;;;21.81;43.63;99831.78;5086770;28;20048;-76
2022/05/24 04:10:04;;;;;;;4.43;2.40;;;;;;;21.81;43.62;99829.00;5091158;28;20127;-75
2022/05/24 04:12:30;;;;;;;4.95;2.40;;;;;;;21.78;44.04;99837.69;5069422;28;20085;-75
2022/05/24 04:14:57;;;;;;;4.97;2.53;;;;;;;21.78;43.72;99839.59;5072339;28;20049;-75
2022/05/24 04:17:23;;;;;;;5.00;2.55;;;;;;;21.77;43.28;99846.16;5086123;28;20068;-76
2022/05/24 04:19:50;;;;;;;4.85;2.40;;;;;;;21.77;43.25;99854.47;5079433;28;20122;-76
2022/05/24 04:22:41;;;;;;;4.38;2.28;;;;;;;21.76;43.27;99850.84;5095447;28;20155;-75
2022/05/24 04:25:08;;;;;;;5.20;2.30;;;;;;;21.73;43.51;99850.41;5087855;28;20150;-76
2022/05/24 04:27:34;;;;;;;3.67;2.17;;;;;;;21.71;43.54;99858.03;5101420;28;20048;-76
2022/05/24 04:30:02;;;;;;;5.55;2.17;;;;;;;21.71;43.13;99861.66;5088769;28;20106;-76
2022/05/24 04:32:29;;;;;;;4.18;2.05;;;;;;;21.69;43.49;99869.28;5084422;28;20138;-75
2022/05/24 04:34:56;;;;;;;3.00;1.90;;;;;;;21.68;43.60;99870.31;5084769;28;20495;-75
2022/05/24 04:37:23;;;;;;;5.93;2.40;;;;;;;21.68;43.85;99867.56;5085938;28;20126;-76
2022/05/24 04:39:50;;;;;;;4.85;1.92;;;;;;;21.66;43.19;99864.13;5089440;28;20135;-75
2022/05/24 04:42:20;;;;;;;3.22;1.80;;;;;;;21.65;42.90;99854.16;5085102;28;20072;-75
2022/05/24 04:44:52;;;;;;;4.47;1.95;;;;;;;21.64;43.71;99853.31;5091321;28;20068;-76
2022/05/24 04:47:20;;;;;;;4.05;1.80;;;;;;;21.60;44.03;99843.69;5091042;28;20135;-76
2022/05/24 04:49:53;;;;;;;5.22;2.13;;;;;;;21.62;44.03;99847.13;5090726;28;20131;-76
2022/05/24 04:52:23;;;;;;;3.75;1.70;;;;;;;21.60;43.99;99854.72;5073616;28;20131;-76
2022/05/24 04:54:51;;;;;;;3.85;1.90;;;;;;;21.58;44.46;99856.84;5088979;28;20131;-76
2022/05/24 04:57:18;;;;;;;4.95;1.80;;;;;;;21.58;43.86;99875.31;5070131;28;20479;-75
2022/05/24 04:59:46;;;;;;;4.43;2.10;;;;;;;21.58;43.62;99883.59;5090494;28;20487;-76
2022/05/24 05:02:17;;;;;;;4.25;2.20;;;;;;;21.55;43.60;99886.78;5060310;28;20048;-76
2022/05/24 05:04:43;;;;;;;4.65;1.70;;;;;;;21.53;43.38;99903.53;5071429;28;20620;-75
2022/05/24 05:07:11;;;;;;;3.80;1.80;;;;;;;21.51;43.89;99907.53;5072794;28;20515;-75
2022/05/24 05:09:38;;;;;;;4.18;1.67;;;;;;;21.48;43.92;99911.56;5075553;28;20150;-75
2022/05/24 05:12:07;;;;;;;4.72;1.85;;;;;;;21.48;43.65;99922.63;5090866;28;20073;-75
2022/05/24 05:14:36;;;;;;;2.90;1.70;;;;;;;21.45;44.44;99927.66;5089512;28;20467;-75
2022/05/24 05:17:02;;;;;;;4.15;1.52;;;;;;;21.42;44.49;99934.41;5092202;28;20048;-76
2022/05/24 05:19:29;;;;;;;3.90;1.83;;;;;;;21.40;43.91;99944.84;5089329;28;20243;-75
2022/05/24 05:21:56;;;;;;;3.80;1.60;;;;;;;21.39;43.83;99947.78;5071335;28;20054;-76
2022/05/24 05:24:23;;;;;;;3.72;1.63;;;;;;;21.37;43.30;99958.16;5094334;28;20094;-78
2022/05/24 05:26:50;;;;;;;4.15;1.80;;;;;;;21.35;43.90;99963.88;5072626;28;20076;-78
2022/05/24 05:31:16;;;;;;;3.42;1.63;;;;;;;21.32;43.87;99964.28;5089241;28;20059;-75
2022/05/24 05:32:04;;;;;;;4.97;1.60;;;;;;;21.30;44.17;99963.59;5085684;28;20075;-76
2022/05/24 05:34:30;;;;;;;3.08;1.48;;;;;;;21.29;44.04;99974.84;5088931;28;20457;-76
2022/05/24 05:36:57;;;;;;;3.75;1.48;;;;;;;21.27;44.10;99980.53;5089156;28;20131;-76
2022/05/24 05:39:24;;;;;;;3.78;1.70;;;;;;;21.25;43.69;99985.41;5090471;28;20047;-77
2022/05/24 05:41:53;;;;;;;5.03;1.50;;;;;;;21.22;43.65;99985.81;5089685;28;20044;-77
2022/05/24 05:44:19;;;;;;;3.58;1.50;;;;;;;21.19;43.75;100000.84;5088556;28;20609;-78
2022/05/24 05:46:46;;;;;;;4.53;1.75;;;;;;;21.16;43.63;100000.34;5090583;28;20048;-76
2022/05/24 05:49:15;;;;;;;3.25;1.45;;;;;;;21.14;43.91;99999.69;5068926;28;20044;-78
2022/05/24 05:51:42;;;;;;;2.90;1.27;;;;;;;21.10;44.29;99999.19;5087761;28;20074;-77
2022/05/24 05:54:09;;;;;;;3.20;1.48;;;;;;;21.06;44.07;99997.88;5069708;28;20067;-77
2022/05/24 05:56:36;;;;;;;2.72;1.48;;;;;;;21.02;43.45;100006.72;5084074;28;20060;-77
2022/05/24 05:59:02;;;;;;;3.45;1.33;;;;;;;20.98;43.79;100006.25;5091261;28;20146;-77
2022/05/24 06:01:30;;;;;;;4.18;1.60;;;;;;;20.95;44.16;100012.13;5092245;28;20463;-77
2022/05/24 06:04:00;;;;;;;2.10;1.13;;;;;;;20.94;44.85;100023.34;5093447;28;20047;-76
2022/05/24 06:06:31;;;;;;;3.53;1.42;;;;;;;20.88;44.73;100027.75;5109483;28;20055;-76
2022/05/24 06:08:58;;;;;;;2.83;1.50;;;;;;;20.81;43.89;100038.69;5088405;28;20048;-77
2022/05/24 06:11:24;;;;;;;3.15;1.58;;;;;;;20.77;44.10;100034.56;5091629;28;20510;-74
2022/05/24 06:13:51;;;;;;;3.00;1.30;;;;;;;20.73;44.62;100038.78;5092313;28;20043;-76
2022/05/24 06:16:18;;;;;;;2.75;1.50;;;;;;;20.67;44.67;100031.22;5090843;28;20048;-76
2022/05/24 06:18:45;;;;;;;3.78;1.20;;;;;;;20.63;44.25;100031.78;5082182;28;20134;-76
2022/05/24 06:21:12;;;;;;;3.10;1.58;;;;;;;20.59;44.19;100031.31;5087407;28;20075;-76
2022/05/24 06:23:39;;;;;;;2.22;1.13;;;;;;;20.56;44.47;100039.09;5092414;28;20091;-77
2022/05/24 06:26:07;;;;;;;3.03;1.30;;;;;;;20.52;44.49;100041.38;5089271;28;20127;-77
2022/05/24 06:28:33;;;;;;;3.05;1.20;;;;;;;20.48;44.86;100037.28;5086176;28;20040;-76
2022/05/24 06:31:00;;;;;;;2.85;1.00;;;;;;;20.45;44.92;100044.03;5071409;28;20173;-76
2022/05/24 06:33:27;;;;;;;2.13;1.08;;;;;;;20.41;45.18;100045.44;5088914;28;20098;-76
2022/05/24 06:35:54;;;;;;;3.05;1.30;;;;;;;20.38;45.02;100055.97;5081386;28;20098;-75
2022/05/24 06:38:20;;;;;;;2.78;1.27;;;;;;;20.35;45.16;100065.47;5093056;28;20085;-75
2022/05/24 06:40:47;;;;;;;2.22;1.13;;;;;;;20.33;45.45;100074.94;5073088;28;20135;-75
2022/05/24 06:43:14;;;;;;;3.50;1.23;;;;;;;20.30;45.29;100076.16;5084357;28;20048;-75
2022/05/24 06:45:41;;;;;;;3.28;1.40;;;;;;;20.28;45.19;100066.34;5080273;28;20072;-76
2022/05/24 06:48:10;;;;;;;2.05;1.20;;;;;;;20.27;45.49;100064.63;5050149;28;20086;-76
2022/05/24 06:50:39;;;;;;;3.70;1.30;;;;;;;20.24;46.09;100059.50;5077380;28;20142;-77
2022/05/24 06:53:06;;;;;;;3.42;2.15;;;;;;;20.21;45.90;100059.88;5074617;28;20070;-77
2022/05/24 06:55:32;;;;;;;4.57;1.50;;;;;;;20.19;45.60;100064.69;5097927;28;20123;-76
2022/05/24 06:57:59;;;;;;;3.25;1.33;;;;;;;20.17;45.46;100069.56;5081980;28;20449;-76
2022/05/24 07:03:14;;;;;;;2.20;1.20;;;;;;;20.13;46.05;100080.94;5088804;28;20054;-76
2022/05/24 07:05:42;;;;;;;2.70;1.25;;;;;;;20.11;45.40;100080.25;5089374;28;20171;-76
2022/05/24 07:08:10;;;;;;;3.30;1.15;;;;;;;20.09;45.90;100087.84;5080899;28;20127;-76
2022/05/24 07:10:39;;;;;;;2.88;1.40;;;;;;;20.09;46.06;100085.09;5092330;28;20056;-76
2022/05/24 07:13:17;;;;;;;2.92;1.20;;;;;;;20.10;46.36;100075.78;5068634;28;20135;-76
2022/05/24 07:15:43;;;;;;;3.22;1.45;;;;;;;20.05;46.37;100094.78;5097299;28;20079;-75
2022/05/24 07:18:10;;;;;;;3.15;1.42;;;;;;;20.04;46.23;100101.31;5086006;28;20098;-76
2022/05/24 07:20:36;;;;;;;3.33;1.25;;;;;;;20.05;46.19;100105.81;5085781;28;20082;-76
2022/05/24 07:23:14;;;;;;;3.15;1.30;;;;;;;20.07;46.35;100105.63;5084801;28;20518;-76
2022/05/24 07:25:42;;;;;;;4.63;1.80;;;;;;;20.05;46.53;100110.44;5093561;28;20059;-75
2022/05/24 07:28:11;;;;;;;2.70;1.23;;;;;;;20.06;46.13;100104.75;5079379;28;20048;-75
2022/05/24 07:30:38;;;;;;;3.20;1.23;;;;;;;20.07;46.07;100112.00;5080689;28;20091;-75
2022/05/24 07:33:06;;;;;;;3.00;1.20;;;;;;;20.10;46.33;100121.78;5087098;28;20039;-76
2022/05/24 07:35:33;;;;;;;2.70;1.40;;;;;;;20.15;46.71;100127.63;5086031;28;20086;-76
2022/05/24 07:37:59;;;;;;;2.15;1.10;;;;;;;20.20;46.85;100127.06;5047028;28;20076;-75
2022/05/24 07:46:03;;;;;;;3.20;1.38;;;;;;;20.36;46.62;100125.09;5082942;28;20449;-75
2022/05/24 07:48:30;;;;;;;2.67;1.40;;;;;;;20.41;46.51;100125.41;5070113;28;20494;-76
2022/05/24 07:50:56;;;;;;;3.90;1.60;;;;;;;20.49;46.75;100124.50;5077666;28;20068;-75
2022/05/24 07:53:23;;;;;;;4.13;1.58;;;;;;;20.56;46.23;100125.47;5078185;28;20040;-75
2022/05/24 07:55:50;;;;;;;3.85;1.63;;;;;;;20.61;45.94;100128.50;5086231;28;20097;-76
2022/05/24 07:58:16;;;;;;;4.30;2.00;;;;;;;20.67;45.56;100122.25;5079222;28;20439;-75
2022/05/24 08:00:43;;;;;;;3.35;1.50;;;;;;;20.70;45.03;100121.88;5078469;28;20091;-75
2022/05/24 08:03:10;;;;;;;4.80;1.98;;;;;;;20.75;44.65;100124.97;5051052;28;20079;-75
2022/05/24 08:05:36;;;;;;;3.53;1.50;;;;;;;20.78;44.39;100129.22;5072996;28;20495;-75
2022/05/24 08:08:04;;;;;;;3.38;1.90;;;;;;;20.79;44.16;100126.28;5087722;28;20100;-75
2022/05/24 08:10:32;;;;;;;3.65;1.60;;;;;;;20.80;44.40;100135.44;5096316;28;20134;-75
2022/05/24 08:13:02;;;;;;;3.75;1.88;;;;;;;20.82;44.52;100142.50;5085654;28;20495;-75
2022/05/24 08:15:30;;;;;;;4.95;1.75;;;;;;;20.85;44.01;100131.06;5090665;28;20634;-74
2022/05/24 08:17:57;;;;;;;3.63;1.85;;;;;;;20.87;44.66;100128.97;5084963;28;20072;-75
2022/05/24 08:20:23;;;;;;;3.78;2.08;;;;;;;20.94;44.13;100139.25;5068870;28;20048;-75
2022/05/24 08:22:50;;;;;;;3.47;1.48;;;;;;;20.99;44.19;100134.06;5077750;28;20466;-77
2022/05/24 08:25:17;;;;;;;3.67;1.50;;;;;;;21.05;44.37;100138.81;5085391;28;20076;-76
2022/05/24 08:27:44;;;;;;;3.45;1.40;;;;;;;21.14;44.16;100148.75;5085104;28;20083;-76
2022/05/24 08:30:16;;;;;;;2.40;1.33;;;;;;;21.23;43.67;100151.28;5086301;28;20052;-76
2022/05/24 08:32:44;;;;;;;1.83;1.30;;;;;;;21.25;43.96;100135.34;5085286;28;20154;-76
2022/05/24 08:35:12;;;;;;;2.53;1.27;;;;;;;21.35;43.71;100148.88;5092355;28;20137;-76
2022/05/24 08:37:39;;;;;;;2.70;1.20;;;;;;;;;;5085021;28;20056;-77
2022/05/24 08:40:07;;;;;;;0.95;0.80;;;;;;;21.48;42.29;100156.53;5096587;28;20470;-76
2022/05/24 08:42:48;;;;;;;2.10;1.10;;;;;;;21.52;42.33;100160.59;5085782;28;20093;-76
2022/05/24 08:48:23;;;;;;;2.28;1.10;;;;;;;21.58;40.42;100155.19;5086719;28;20097;-76
2022/05/24 08:50:57;;;;;;;2.60;1.10;;;;;;;21.57;40.54;100159.00;5086443;28;20467;-76
2022/05/24 08:53:39;;;;;;;2.25;1.05;;;;;;;21.56;39.95;100157.28;5084352;28;20075;-76
2022/05/24 08:56:07;;;;;;;1.83;0.90;;;;;;;21.52;40.74;100160.59;5069976;28;20159;-77
2022/05/24 08:58:38;;;;;;;2.55;1.08;;;;;;;21.52;40.34;100172.53;5094266;28;20135;-77
2022/05/24 09:01:28;;;;;;;2.38;1.05;;;;;;;21.44;40.13;100169.84;5085831;28;20056;-76
2022/05/24 09:03:55;;;;;;;2.78;1.05;;;;;;;21.41;40.69;100166.63;5086826;28;20461;-77
2022/05/24 09:06:34;;;;;;;2.15;1.10;;;;;;;21.43;40.38;100181.94;5079625;28;20098;-76
2022/05/24 09:09:32;;;;;;;1.70;0.98;;;;;;;21.35;39.88;100179.25;5091098;28;20511;-77
2022/05/24 09:12:00;;;;;;;1.83;1.05;;;;;;;21.30;40.08;100197.44;5088463;28;20071;-77
2022/05/24 09:14:46;;;;;;;2.38;1.40;;;;;;;21.30;39.85;100198.31;5086859;28;20133;-77
2022/05/24 09:17:22;;;;;;;1.98;1.02;;;;;;;21.24;39.81;100199.94;5089969;28;20044;-77
2022/05/24 09:19:49;;;;;;;2.13;1.00;;;;;;;21.18;39.87;100192.38;5087762;28;20083;-77
2022/05/24 09:22:16;;;;;;;2.17;0.90;;;;;;;21.13;39.97;100208.63;5084449;28;20169;-76
2022/05/24 09:24:46;;;;;;;2.08;1.13;;;;;;;21.11;40.46;100205.19;5088574;28;20087;-76
2022/05/24 09:27:17;;;;;;;1.80;1.10;;;;;;;21.08;40.01;100213.84;5074217;28;20451;-76
2022/05/24 09:29:54;;;;;;;2.35;0.98;;;;;;;21.07;39.46;100209.38;5090667;28;20124;-76
2022/05/24 09:32:34;;;;;;;2.15;1.08;;;;;;;21.02;39.50;100219.22;5090103;28;20135;-76
2022/05/24 09:35:10;;;;;;;3.22;1.10;;;;;;;21.01;39.31;100212.00;5089410;28;20440;-77
2022/05/24 09:37:38;;;;;;;2.45;1.02;;;;;;;20.96;40.10;100220.84;5087663;28;20112;-77
2022/05/24 09:40:07;;;;;;;1.98;0.90;;;;;;;20.97;40.04;100221.69;5092726;28;20094;-78
2022/05/24 09:42:36;;;;;;;1.80;1.00;;;;;;;20.97;40.30;100228.06;5089356;28;20055;-78
2022/05/24 09:45:09;;;;;;;1.95;1.17;;;;;;;20.97;40.35;100228.06;5088642;28;20079;-77
2022/05/24 09:47:52;;;;;;;2.85;1.25;;;;;;;20.97;39.73;100221.69;5089495;28;20101;-77
2022/05/24 09:50:36;;;;;;;1.88;1.10;;;;;;;20.98;39.50;100232.56;5088963;28;20385;-78
2022/05/24 09:53:06;;;;;;;2.70;1.00;;;;;;;20.94;40.03;100238.63;5087593;28;20052;-78
2022/05/24 09:55:55;;;;;;;2.92;1.13;;;;;;;20.94;39.48;100242.22;5089533;28;20497;-77
2022/05/24 09:58:38;;;;;;;2.67;1.00;;;;;;;20.96;38.95;100233.78;5080220;28;20130;-77
2022/05/24 10:01:07;;;;;;;1.70;1.02;;;;;;;20.89;39.74;100256.59;5088528;28;20352;-77
2022/05/24 10:03:47;;;;;;;1.95;0.95;;;;;;;20.93;38.98;100254.31;5090976;28;20451;-77
2022/05/24 10:06:23;;;;;;;1.98;1.17;;;;;;;20.89;39.69;100259.34;5088057;28;20044;-77
2022/05/24 10:08:53;;;;;;;1.98;1.35;;;;;;;20.93;39.10;100246.03;5093391;28;20080;-76
2022/05/24 10:11:27;;;;;;;1.92;1.00;;;;;;;20.95;38.71;100243.09;5094113;28;20143;-76
2022/05/24 10:14:25;;;;;;;2.85;1.33;;;;;;;20.94;39.10;100246.88;5090498;28;20059;-77
2022/05/24 10:17:02;;;;;;;5.35;1.63;;;;;;;20.98;38.70;100259.28;5040426;28;20502;-78
2022/05/24 10:19:39;;;;;;;2.67;1.20;;;;;;;20.99;38.99;100256.34;5093592;28;20088;-77
2022/05/24 10:22:21;;;;;;;2.70;1.00;;;;;;;21.01;39.44;100269.94;5087110;28;20040;-77
2022/05/24 10:24:50;;;;;;;3.47;1.10;;;;;;;21.02;39.82;100260.63;5091016;28;20126;-76
2022/05/24 10:27:18;;;;;;;2.08;1.10;;;;;;;21.06;39.48;100251.81;5089317;28;20302;-77
2022/05/24 10:30:03;;;;;;;3.47;1.30;;;;;;;21.13;39.78;100255.53;5089402;28;20036;-75
2022/05/24 10:39:06;;;;;;;1.58;1.00;;;;;;;21.32;39.84;100259.75;5090374;28;20486;-76
2022/05/24 10:41:36;;;;;;;2.58;1.00;;;;;;;21.38;39.54;100256.22;5089318;28;20081;-76
2022/05/24 10:44:13;;;;;;;2.80;1.20;;;;;;;21.50;39.34;100264.91;5086266;28;20126;-76
2022/05/24 10:47:03;;;;;;;3.95;1.10;;;;;;;21.55;38.84;100273.50;5089296;28;20113;-76
2022/05/24 10:49:50;;;;;;;3.03;1.40;;;;;;;21.60;38.34;100273.78;5087763;28;20046;-76
2022/05/24 10:52:52;;;;;;;2.95;1.40;;;;;;;21.66;38.67;100267.50;5093726;28;20044;-77
2022/05/24 10:55:21;;;;;;;1.83;1.10;;;;;;;21.67;39.02;100265.59;5087976;28;20075;-77
2022/05/24 10:57:58;;;;;;;2.55;1.10;;;;;;;21.77;37.86;100283.63;5085481;28;20075;-77
2022/05/24 11:00:52;;;;;;;2.35;0.82;;;;;;;21.79;37.39;100272.38;5093927;28;20098;-76
2022/05/24 11:03:27;;;;;;;1.90;1.23;;;;;;;21.80;36.73;100272.22;5089056;28;20394;-76
2022/05/24 11:05:57;;;;;;;3.15;1.00;;;;;;;21.82;37.77;100270.13;5078535;28;20431;-76
2022/05/24 11:08:55;;;;;;;2.70;1.20;;;;;;;21.83;37.13;100270.94;5087133;28;20040;-76
2022/05/24 11:11:40;;;;;;;1.73;1.10;;;;;;;21.86;36.51;100270.59;5089618;28;20043;-76
2022/05/24 11:14:15;;;;;;;2.03;1.00;;;;;;;21.87;36.79;100273.16;5085327;28;20129;-76
2022/05/24 11:16:50;;;;;;;3.03;1.20;;;;;;;21.89;37.66;100279.38;5078914;28;20051;-80
2022/05/24 11:19:24;;;;;;;3.38;1.40;;;;;;;21.90;37.48;100280.22;5073654;28;20047;-86
2022/05/24 11:22:11;;;;;;;4.47;1.40;;;;;;;21.91;38.52;100287.44;5085188;28;20325;-75
2022/05/24 11:25:02;;;;;;;2.75;1.20;;;;;;;21.99;37.57;100276.31;5068192;28;20317;-72
2022/05/24 11:27:45;;;;;;;3.08;1.63;;;;;;;22.00;37.99;100273.38;5083167;28;20143;-73
2022/05/24 11:30:17;;;;;;;2.90;1.30;;;;;;;22.12;37.36;100281.19;5085187;28;20135;-73
2022/05/24 11:32:50;;;;;;;3.20;1.30;;;;;;;22.15;37.45;100287.22;5057854;28;20545;-72
2022/05/24 11:35:20;;;;;;;1.95;0.93;;;;;;;22.26;36.97;100294.16;5072428;28;20048;-72
2022/05/24 11:37:52;;;;;;;4.10;1.40;;;;;;;22.30;36.50;100282.53;5081845;28;20109;-72
2022/05/24 11:40:55;;;;;;;4.68;1.10;;;;;;;22.34;36.66;100296.81;5086208;28;20123;-72
2022/05/24 11:43:35;;;;;;;2.47;1.20;;;;;;;22.42;36.99;100301.38;5075719;28;20104;-72
2022/05/24 11:46:07;;;;;;;1.98;1.00;;;;;;;22.49;37.50;100288.50;5080193;28;20076;-73
2022/05/24 11:48:59;;;;;;;2.13;1.10;;;;;;;22.58;36.75;100293.72;5087332;28;20142;-72
2022/05/24 11:51:37;;;;;;;1.67;0.77;;;;;;;22.67;36.24;100294.47;5086165;28;20521;-73
2022/05/24 11:54:12;;;;;;;2.10;0.90;;;;;;;22.75;36.31;100295.25;5081552;28;20097;-73
2022/05/24 11:56:38;;;;;;;3.35;1.52;;;;;;;22.84;36.57;100295.13;5088041;28;20048;-72
2022/05/24 11:59:11;;;;;;;2.45;0.95;;;;;;;22.94;35.98;100304.00;5065771;28;20048;-72
2022/05/24 12:01:44;;;;;;;2.20;1.20;;;;;;;23.02;35.26;100301.09;5087224;28;20500;-72
2022/05/24 12:10:22;;;;;;;2.88;1.10;;;;;;;23.12;35.48;100312.72;5069061;28;20044;-73
2022/05/24 12:12:50;;;;;;;4.00;1.50;;;;;;;23.19;35.00;100310.00;5061288;28;20128;-73
2022/05/24 12:15:16;;;;;;;3.55;1.35;;;;;;;23.22;35.39;100313.25;5057521;28;20056;-73
2022/05/24 12:17:46;;;;;;;2.08;1.00;;;;;;;23.28;35.50;100312.47;5060413;28;20071;-72
2022/05/24 12:20:46;;;;;;;5.05;1.85;;;;;;;23.28;35.15;100318.00;5062556;28;20127;-73
2022/05/24 12:23:17;;;;;;;4.47;1.50;;;;;;;23.39;34.36;100327.69;5035378;28;20055;-73
2022/05/24 12:26:08;;;;;;;1.80;1.00;;;;;;;23.43;33.86;100316.00;5063111;28;20048;-73
2022/05/24 12:28:38;;;;;;;3.00;1.30;;;;;;;23.45;33.57;100332.44;5072345;28;20048;-73